Time;durP1;ratioP1;P1;durP2;ratioP2;P2;SDS_P1;SDS_P2;PMS_P1;PMS_P2;Temp;Humidity;BMP_temperature;BMP_pressure;BME280_temperature;BME280_humidity;BME280_pressure;Samples;Min_cycle;Max_cycle;Signal;HPM_P1;HPM_P2
2021/06/19 00:00:11;;;;;;;15.10;11.65;;;;;;;;;;5053900;27;38127;-82
2021/06/19 00:02:38;;;;;;;11.15;9.70;;;;;;;;;;5054046;28;40825;-80
2021/06/19 00:05:05;;;;;;;11.75;10.25;;;;;;;;;;5047651;27;39604;-80
2021/06/19 00:07:31;;;;;;;10.65;9.55;;;;;;;;;;5060719;27;48642;-81
2021/06/19 00:09:58;;;;;;;10.57;9.45;;;;;;;;;;5055755;27;37952;-79
2021/06/19 00:12:24;;;;;;;11.32;10.18;;;;;;;;;;5045417;28;38682;-80
2021/06/19 00:14:50;;;;;;;10.90;9.80;;;;;;;;;;5051755;28;39318;-81
2021/06/19 00:17:17;;;;;;;11.38;8.57;;;;;;;;;;5053414;28;40257;-79
2021/06/19 00:19:44;;;;;;;12.75;9.32;;;;;;;;;;5056850;28;35768;-80
2021/06/19 00:22:10;;;;;;;10.70;8.68;;;;;;;;;;5054388;27;40490;-79
2021/06/19 00:24:38;;;;;;;13.77;9.38;;;;;;;;;;5063842;28;41341;-79
2021/06/19 00:27:06;;;;;;;16.17;10.00;;;;;;;;;;5051178;28;38788;-80
2021/06/19 00:29:32;;;;;;;12.32;10.68;;;;;;;;;;5056493;28;37729;-80
2021/06/19 00:31:59;;;;;;;14.55;10.57;;;;;;;;;;5058700;27;39766;-81
2021/06/19 00:34:25;;;;;;;11.07;9.98;;;;;;;;;;5055146;28;39649;-81
2021/06/19 00:36:52;;;;;;;10.82;9.73;;;;;;;;;;5060927;27;38752;-81
2021/06/19 00:39:18;;;;;;;9.57;8.68;;;;;;;;;;5043403;27;37396;-81
2021/06/19 00:41:45;;;;;;;12.27;8.98;;;;;;;;;;5059878;28;39066;-81
2021/06/19 00:44:19;;;;;;;11.43;9.52;;;;;;;;;;5047707;28;40000;-81
2021/06/19 00:46:49;;;;;;;18.58;15.63;;;;;;;;;;5057115;28;38829;-80
2021/06/19 00:49:16;;;;;;;25.20;20.58;;;;;;;;;;5045818;28;36959;-81
2021/06/19 00:51:42;;;;;;;24.98;22.35;;;;;;;;;;5049361;27;39227;-81
2021/06/19 00:54:08;;;;;;;28.80;23.42;;;;;;;;;;5048612;27;39804;-81
2021/06/19 00:56:36;;;;;;;42.25;31.83;;;;;;;;;;5047582;28;39941;-81
2021/06/19 00:59:04;;;;;;;37.25;33.17;;;;;;;;;;5054676;27;36738;-81
2021/06/19 01:01:30;;;;;;;44.72;35.45;;;;;;;;;;5045278;27;38938;-81
2021/06/19 01:03:56;;;;;;;41.38;35.50;;;;;;;;;;5049421;27;39711;-79
2021/06/19 01:06:23;;;;;;;44.40;38.67;;;;;;;;;;5045311;28;39067;-81
2021/06/19 01:08:49;;;;;;;45.72;38.80;;;;;;;;;;5047580;27;37642;-81
2021/06/19 01:11:21;;;;;;;50.65;41.75;;;;;;;;;;5048148;27;39415;-81
2021/06/19 01:13:48;;;;;;;53.50;41.55;;;;;;;;;;5056580;28;40612;-80
2021/06/19 01:16:15;;;;;;;64.88;48.20;;;;;;;;;;5043935;28;39071;-81
2021/06/19 01:18:42;;;;;;;59.88;45.75;;;;;;;;;;5049587;28;37206;-82
2021/06/19 01:21:13;;;;;;;58.60;43.88;;;;;;;;;;5044567;28;39720;-81
2021/06/19 01:23:39;;;;;;;55.58;43.45;;;;;;;;;;5053163;27;38477;-81
2021/06/19 01:26:06;;;;;;;60.60;43.70;;;;;;;;;;5047910;27;39233;-81
2021/06/19 01:28:32;;;;;;;62.10;41.40;;;;;;;;;;5058973;28;37808;-82
2021/06/19 01:30:58;;;;;;;63.35;43.90;;;;;;;;;;5048596;28;39787;-80
2021/06/19 01:33:25;;;;;;;55.38;41.28;;;;;;;;;;5051915;28;39797;-79
2021/06/19 01:35:51;;;;;;;55.97;40.88;;;;;;;;;;5052006;27;39513;-82
2021/06/19 01:38:18;;;;;;;52.13;39.60;;;;;;;;;;5054008;28;38144;-81
2021/06/19 01:40:45;;;;;;;57.70;41.40;;;;;;;;;;5059349;27;38796;-80
2021/06/19 01:43:11;;;;;;;58.38;41.75;;;;;;;;;;5045521;27;40925;-80
2021/06/19 01:45:38;;;;;;;66.10;47.45;;;;;;;;;;5045177;28;39366;-81
2021/06/19 01:48:05;;;;;;;65.15;46.97;;;;;;;;;;5057949;27;35896;-81
2021/06/19 01:50:32;;;;;;;69.30;48.05;;;;;;;;;;5057181;28;39842;-81
2021/06/19 01:53:00;;;;;;;69.75;45.70;;;;;;;;;;5062417;27;40490;-80
2021/06/19 01:55:27;;;;;;;66.72;44.42;;;;;;;;;;5049085;28;46562;-84
2021/06/19 01:57:54;;;;;;;72.72;48.72;;;;;;;;;;5036686;28;37993;-81
2021/06/19 02:00:21;;;;;;;81.78;49.42;;;;;;;;;;5029896;27;39801;-81
2021/06/19 02:02:47;;;;;;;84.95;53.00;;;;;;;;;;5036887;28;38863;-81
2021/06/19 02:05:14;;;;;;;87.18;55.30;;;;;;;;;;5032917;28;40338;-81
2021/06/19 02:08:04;;;;;;;83.88;53.47;;;;;;;;;;5037305;28;38500;-81
2021/06/19 02:10:32;;;;;;;87.15;57.70;;;;;;;;;;5046161;27;48198;-81
2021/06/19 02:12:59;;;;;;;91.63;59.40;;;;;;;;;;5049243;28;39806;-81
2021/06/19 02:15:26;;;;;;;86.75;56.63;;;;;;;;;;5048877;27;38952;-81
2021/06/19 02:17:55;;;;;;;86.93;56.50;;;;;;;;;;5061358;28;38887;-81
2021/06/19 02:20:21;;;;;;;92.78;60.42;;;;;;;;;;5050570;27;39127;-80
2021/06/19 02:22:48;;;;;;;96.18;58.08;;;;;;;;;;5051875;28;39568;-81
2021/06/19 02:25:15;;;;;;;82.43;51.38;;;;;;;;;;5049863;28;40748;-81
2021/06/19 02:28:00;;;;;;;92.95;57.53;;;;;;;;;;5064964;28;38917;-81
2021/06/19 02:30:28;;;;;;;83.13;55.97;;;;;;;;;;5051490;27;42410;-82
2021/06/19 02:32:54;;;;;;;94.88;56.80;;;;;;;;;;5048463;28;39157;-82
2021/06/19 02:35:22;;;;;;;101.25;59.95;;;;;;;;;;5026004;28;39085;-83
2021/06/19 02:37:48;;;;;;;96.05;57.53;;;;;;;;;;5051984;28;37990;-82
2021/06/19 02:40:15;;;;;;;117.15;67.90;;;;;;;;;;5052382;28;37485;-82
2021/06/19 02:42:41;;;;;;;90.93;56.75;;;;;;;;;;5054057;28;39400;-82
2021/06/19 02:45:12;;;;;;;96.95;58.00;;;;;;;;;;5050059;28;39406;-82
2021/06/19 02:47:46;;;;;;;82.22;54.25;;;;;;;;;;5056118;28;37221;-82
2021/06/19 02:50:13;;;;;;;77.65;49.83;;;;;;;;;;5058958;27;40401;-83
2021/06/19 02:52:43;;;;;;;86.93;52.67;;;;;;;;;;5071733;28;41264;-80
2021/06/19 02:55:14;;;;;;;100.07;59.90;;;;;;;;;;5051837;27;38823;-81
2021/06/19 02:57:41;;;;;;;74.63;47.15;;;;;;;;;;5078026;27;38242;-83
2021/06/19 03:00:08;;;;;;;72.68;46.67;;;;;;;;;;5054641;27;39867;-82
2021/06/19 03:02:35;;;;;;;80.50;47.95;;;;;;;;;;5050507;27;48712;-82
2021/06/19 03:05:01;;;;;;;73.32;46.72;;;;;;;;;;5055657;27;38637;-83
2021/06/19 03:07:28;;;;;;;74.78;45.47;;;;;;;;;;5056376;28;47086;-83
2021/06/19 03:09:54;;;;;;;69.20;45.05;;;;;;;;;;5055595;28;40796;-82
2021/06/19 03:12:21;;;;;;;76.00;45.58;;;;;;;;;;5052492;28;39079;-81
2021/06/19 03:14:48;;;;;;;63.40;39.50;;;;;;;;;;5051715;28;39043;-85
2021/06/19 03:17:15;;;;;;;68.43;40.85;;;;;;;;;;5051256;27;39114;-82
2021/06/19 03:19:41;;;;;;;70.93;44.55;;;;;;;;;;5059273;28;39769;-82
2021/06/19 03:22:07;;;;;;;65.07;39.63;;;;;;;;;;5051351;27;38739;-83
2021/06/19 03:24:38;;;;;;;66.65;41.55;;;;;;;;;;5052160;28;39100;-82
2021/06/19 03:27:05;;;;;;;62.35;38.22;;;;;;;;;;5053629;27;37248;-82
2021/06/19 03:29:31;;;;;;;62.63;38.97;;;;;;;;;;5051654;28;39649;-82
2021/06/19 03:31:58;;;;;;;62.83;38.17;;;;;;;;;;5046843;28;39269;-81
2021/06/19 03:34:24;;;;;;;62.95;39.40;;;;;;;;;;5078132;28;39226;-82
2021/06/19 03:36:58;;;;;;;58.33;37.17;;;;;;;;;;5046075;28;37984;-81
2021/06/19 03:39:24;;;;;;;50.70;36.33;;;;;;;;;;5036986;27;38757;-81
2021/06/19 03:41:51;;;;;;;52.60;34.90;;;;;;;;;;5048397;27;38875;-82
2021/06/19 03:44:17;;;;;;;57.35;37.90;;;;;;;;;;5030358;28;38786;-81
2021/06/19 03:46:43;;;;;;;61.72;37.05;;;;;;;;;;5038873;28;37661;-84
2021/06/19 03:49:10;;;;;;;71.18;41.33;;;;;;;;;;5034572;28;39017;-81
2021/06/19 03:51:36;;;;;;;59.67;38.88;;;;;;;;;;5031100;28;39337;-81
2021/06/19 03:54:03;;;;;;;58.97;37.80;;;;;;;;;;5048485;28;39595;-81
2021/06/19 03:56:29;;;;;;;67.05;42.53;;;;;;;;;;5036846;28;47848;-81
2021/06/19 03:58:55;;;;;;;57.60;37.78;;;;;;;;;;5056532;28;39139;-83
2021/06/19 04:01:22;;;;;;;65.55;42.25;;;;;;;;;;5043698;27;39001;-81
2021/06/19 04:03:48;;;;;;;60.22;38.33;;;;;;;;;;5063608;27;38847;-81
2021/06/19 04:06:14;;;;;;;58.75;36.85;;;;;;;;;;5048701;27;36600;-80
2021/06/19 04:08:41;;;;;;;58.80;39.60;;;;;;;;;;5051107;28;39479;-80
2021/06/19 04:11:07;;;;;;;64.05;40.55;;;;;;;;;;5044238;27;37542;-83
2021/06/19 04:13:34;;;;;;;54.22;37.00;;;;;;;;;;5050842;27;39087;-82
2021/06/19 04:16:00;;;;;;;52.78;34.80;;;;;;;;;;5051115;28;35953;-81
2021/06/19 04:18:26;;;;;;;47.22;31.35;;;;;;;;;;5029612;28;40583;-81
2021/06/19 04:20:53;;;;;;;41.47;30.45;;;;;;;;;;5035977;28;39506;-81
2021/06/19 04:23:19;;;;;;;42.47;31.48;;;;;;;;;;5034562;28;40359;-82
2021/06/19 04:25:45;;;;;;;40.63;29.65;;;;;;;;;;5041525;27;38133;-80
2021/06/19 04:28:12;;;;;;;36.35;27.27;;;;;;;;;;5030880;28;41057;-82
2021/06/19 04:30:38;;;;;;;34.55;26.85;;;;;;;;;;5035991;28;40098;-81
2021/06/19 04:33:05;;;;;;;32.08;25.23;;;;;;;;;;5036433;28;39388;-81
2021/06/19 04:35:31;;;;;;;37.10;27.10;;;;;;;;;;5027755;27;37391;-81
2021/06/19 04:37:59;;;;;;;35.35;27.05;;;;;;;;;;5030811;28;38975;-81
2021/06/19 04:40:41;;;;;;;38.08;28.17;;;;;;;;;;5028418;28;39956;-81
2021/06/19 04:43:10;;;;;;;42.95;29.80;;;;;;;;;;5053012;28;37944;-82
2021/06/19 04:45:37;;;;;;;39.63;29.58;;;;;;;;;;5033059;28;37506;-82
2021/06/19 04:48:04;;;;;;;43.42;30.50;;;;;;;;;;5034074;28;40232;-81
2021/06/19 04:50:34;;;;;;;45.90;33.03;;;;;;;;;;5029328;28;39978;-81
2021/06/19 04:53:01;;;;;;;39.78;29.67;;;;;;;;;;5034782;28;37386;-82
2021/06/19 04:55:28;;;;;;;40.40;30.35;;;;;;;;;;5037526;27;47469;-81
2021/06/19 04:57:57;;;;;;;48.92;34.08;;;;;;;;;;5061869;28;37833;-80
2021/06/19 05:00:24;;;;;;;45.92;33.30;;;;;;;;;;5031449;28;39176;-81
2021/06/19 05:02:51;;;;;;;45.67;33.33;;;;;;;;;;5031043;28;38452;-82
2021/06/19 05:05:17;;;;;;;41.63;29.15;;;;;;;;;;5024742;27;37028;-81
2021/06/19 05:07:44;;;;;;;37.72;27.98;;;;;;;;;;5037651;28;39212;-82
2021/06/19 05:10:11;;;;;;;40.30;27.00;;;;;;;;;;5060004;28;36913;-82
2021/06/19 05:12:44;;;;;;;32.05;23.50;;;;;;;;;;5057356;28;37432;-82
2021/06/19 05:15:24;;;;;;;32.83;23.38;;;;;;;;;;5023946;27;37409;-81
2021/06/19 05:17:50;;;;;;;36.75;24.45;;;;;;;;;;5057239;28;39214;-82
2021/06/19 05:20:17;;;;;;;29.60;22.98;;;;;;;;;;5035641;28;38481;-81
2021/06/19 05:22:43;;;;;;;29.02;22.40;;;;;;;;;;5035479;28;38428;-81
2021/06/19 05:25:12;;;;;;;28.52;22.98;;;;;;;;;;5035248;28;37473;-82
2021/06/19 05:27:39;;;;;;;30.60;23.63;;;;;;;;;;5027928;28;39799;-80
2021/06/19 05:30:05;;;;;;;32.60;25.45;;;;;;;;;;5032133;28;37786;-83
2021/06/19 05:32:32;;;;;;;29.70;25.40;;;;;;;;;;5037017;28;37363;-81
2021/06/19 05:34:58;;;;;;;25.52;21.95;;;;;;;;;;5050591;28;36403;-81
2021/06/19 05:37:25;;;;;;;25.15;20.75;;;;;;;;;;5034683;28;37971;-82
2021/06/19 05:39:53;;;;;;;27.52;22.80;;;;;;;;;;5028613;28;39237;-82
2021/06/19 05:42:21;;;;;;;30.60;22.77;;;;;;;;;;5031264;28;20089;-80
2021/06/19 05:44:47;;;;;;;28.38;23.65;;;;;;;;;;5035737;28;37536;-80
2021/06/19 05:47:14;;;;;;;25.98;21.02;;;;;;;;;;5019632;27;39195;-80
2021/06/19 05:49:40;;;;;;;32.40;25.58;;;;;;;;;;5026001;28;40000;-79
2021/06/19 05:52:07;;;;;;;27.25;23.05;;;;;;;;;;5030135;28;38929;-80
2021/06/19 05:54:36;;;;;;;31.30;25.48;;;;;;;;;;5037764;28;36337;-80
2021/06/19 05:57:06;;;;;;;31.75;25.23;;;;;;;;;;5031183;28;38687;-80
2021/06/19 05:59:32;;;;;;;34.20;26.63;;;;;;;;;;5037011;28;39332;-80
2021/06/19 06:01:59;;;;;;;28.27;23.20;;;;;;;;;;5031106;28;38285;-80
2021/06/19 06:04:25;;;;;;;28.33;23.80;;;;;;;;;;5038983;28;36283;-79
2021/06/19 06:06:51;;;;;;;29.02;23.40;;;;;;;;;;5035145;28;37604;-80
2021/06/19 06:09:18;;;;;;;30.13;26.00;;;;;;;;;;5037116;28;39253;-80
2021/06/19 06:11:44;;;;;;;25.63;22.75;;;;;;;;;;5040345;28;38156;-79
2021/06/19 06:14:11;;;;;;;26.10;22.88;;;;;;;;;;5038877;28;36231;-79
2021/06/19 06:16:38;;;;;;;23.40;20.23;;;;;;;;;;5062085;28;38914;-79
2021/06/19 06:19:05;;;;;;;21.10;18.80;;;;;;;;;;5035620;28;38816;-80
2021/06/19 06:21:31;;;;;;;17.25;14.57;;;;;;;;;;5033666;27;39499;-79
2021/06/19 06:23:58;;;;;;;17.52;12.80;;;;;;;;;;5067326;28;35860;-79
2021/06/19 06:26:24;;;;;;;11.10;10.02;;;;;;;;;;5050669;27;39346;-80
2021/06/19 06:28:50;;;;;;;7.60;5.90;;;;;;;;;;5039153;28;38539;-79
2021/06/19 06:31:17;;;;;;;5.63;4.63;;;;;;;;;;5031877;28;38311;-79
2021/06/19 06:33:43;;;;;;;4.07;3.67;;;;;;;;;;5064837;28;36228;-79
2021/06/19 06:36:10;;;;;;;2.40;2.20;;;;;;;;;;5063033;27;37497;-79
2021/06/19 06:38:36;;;;;;;3.03;2.70;;;;;;;;;;5064938;27;38332;-78
2021/06/19 06:41:03;;;;;;;3.80;2.67;;;;;;;;;;5067234;28;37258;-80
2021/06/19 06:43:29;;;;;;;3.58;2.22;;;;;;;;;;5092291;27;36193;-81
2021/06/19 06:45:56;;;;;;;1.73;1.55;;;;;;;;;;5058778;28;37757;-79
2021/06/19 06:48:23;;;;;;;2.08;1.77;;;;;;;;;;5036100;28;39248;-80
2021/06/19 06:50:50;;;;;;;1.70;1.60;;;;;;;;;;5039601;27;39743;-79
2021/06/19 06:53:16;;;;;;;1.52;1.42;;;;;;;;;;5030091;28;36660;-79
2021/06/19 06:55:43;;;;;;;1.67;1.35;;;;;;;;;;5041650;28;38764;-79
2021/06/19 06:58:09;;;;;;;2.72;1.60;;;;;;;;;;5039715;28;38837;-79
2021/06/19 07:00:36;;;;;;;2.90;1.27;;;;;;;;;;5066551;28;37274;-79
2021/06/19 07:03:02;;;;;;;1.33;1.20;;;;;;;;;;5045808;28;38127;-78
2021/06/19 07:05:28;;;;;;;1.33;1.23;;;;;;;;;;5045700;27;39785;-79
2021/06/19 07:07:55;;;;;;;2.30;1.30;;;;;;;;;;5067548;28;38752;-78
2021/06/19 07:10:21;;;;;;;1.48;1.17;;;;;;;;;;5055758;28;39023;-79
2021/06/19 07:12:48;;;;;;;1.45;1.00;;;;;;;;;;5028669;28;36811;-79
2021/06/19 07:15:15;;;;;;;1.30;1.20;;;;;;;;;;5061952;27;39883;-80
2021/06/19 07:17:42;;;;;;;2.17;1.33;;;;;;;;;;5048536;28;38979;-79
2021/06/19 07:20:09;;;;;;;2.63;1.50;;;;;;;;;;5043252;28;38576;-79
2021/06/19 07:22:35;;;;;;;2.83;1.10;;;;;;;;;;5037924;28;37143;-79
2021/06/19 07:25:03;;;;;;;2.15;1.83;;;;;;;;;;5059276;28;39499;-79
2021/06/19 07:27:30;;;;;;;2.53;2.03;;;;;;;;;;5078600;28;47134;-79
2021/06/19 07:29:56;;;;;;;1.83;1.73;;;;;;;;;;5072089;28;39964;-79
2021/06/19 07:32:23;;;;;;;3.13;1.65;;;;;;;;;;5046250;28;36931;-80
2021/06/19 07:34:50;;;;;;;1.48;1.38;;;;;;;;;;5044153;28;39494;-79
2021/06/19 07:37:16;;;;;;;1.25;1.20;;;;;;;;;;5044141;28;39076;-78
2021/06/19 07:39:43;;;;;;;1.40;1.30;;;;;;;;;;5044001;28;38509;-79
2021/06/19 07:42:09;;;;;;;4.10;1.20;;;;;;;;;;5041065;28;37139;-78
2021/06/19 07:44:36;;;;;;;1.63;1.27;;;;;;;;;;5045985;28;39311;-79
2021/06/19 07:47:02;;;;;;;1.58;1.10;;;;;;;;;;5043737;28;40024;-79
2021/06/19 07:49:29;;;;;;;1.42;1.20;;;;;;;;;;5044065;28;38911;-79
2021/06/19 07:51:57;;;;;;;1.30;1.20;;;;;;;;;;5041221;28;38643;-79
2021/06/19 07:54:23;;;;;;;1.35;1.25;;;;;;;;;;5031547;28;39891;-79
2021/06/19 07:56:50;;;;;;;1.95;1.42;;;;;;;;;;5035117;28;39393;-79
2021/06/19 07:59:16;;;;;;;2.28;1.95;;;;;;;;;;5027479;28;38234;-79
2021/06/19 08:01:42;;;;;;;1.55;1.40;;;;;;;;;;5027461;28;36622;-80
2021/06/19 08:04:09;;;;;;;3.40;1.90;;;;;;;;;;5058524;28;39496;-79
2021/06/19 08:06:35;;;;;;;5.28;2.28;;;;;;;;;;5069750;28;39389;-79
2021/06/19 08:09:01;;;;;;;8.00;2.58;;;;;;;;;;5085730;27;38614;-79
2021/06/19 08:11:28;;;;;;;3.17;1.70;;;;;;;;;;5064982;27;48819;-80
2021/06/19 08:13:54;;;;;;;3.40;2.10;;;;;;;;;;5063308;28;39823;-79
2021/06/19 08:16:21;;;;;;;6.68;2.22;;;;;;;;;;5063853;27;40293;-79
2021/06/19 08:18:48;;;;;;;3.50;2.30;;;;;;;;;;5066966;27;38086;-79
2021/06/19 08:21:15;;;;;;;7.18;2.63;;;;;;;;;;5061393;28;38095;-79
2021/06/19 08:23:41;;;;;;;2.63;2.40;;;;;;;;;;5060521;27;39209;-79
2021/06/19 08:26:08;;;;;;;3.58;2.50;;;;;;;;;;5062422;28;39791;-79
2021/06/19 08:28:35;;;;;;;3.35;2.63;;;;;;;;;;5068593;28;38220;-80
2021/06/19 08:31:03;;;;;;;3.05;2.42;;;;;;;;;;5064355;28;37052;-79
2021/06/19 08:33:30;;;;;;;5.45;2.90;;;;;;;;;;5062443;28;39225;-79
2021/06/19 08:35:56;;;;;;;5.18;2.80;;;;;;;;;;5064749;28;39655;-78
2021/06/19 08:38:22;;;;;;;5.03;2.53;;;;;;;;;;5063798;28;39756;-79
2021/06/19 08:40:49;;;;;;;3.53;2.33;;;;;;;;;;5062684;27;37894;-80
2021/06/19 08:43:17;;;;;;;3.65;2.00;;;;;;;;;;5062506;28;39615;-79
2021/06/19 08:45:43;;;;;;;3.25;2.10;;;;;;;;;;5065563;28;39362;-79
2021/06/19 08:48:10;;;;;;;3.00;2.13;;;;;;;;;;5059813;28;40100;-79
2021/06/19 08:50:39;;;;;;;2.75;2.22;;;;;;;;;;5064772;28;37763;-79
2021/06/19 08:53:05;;;;;;;3.65;2.30;;;;;;;;;;5063710;28;39334;-78
2021/06/19 08:55:32;;;;;;;4.38;2.55;;;;;;;;;;5045130;28;39338;-79
2021/06/19 08:57:58;;;;;;;5.72;2.38;;;;;;;;;;5050368;28;38664;-79
2021/06/19 09:00:24;;;;;;;4.85;2.45;;;;;;;;;;5063221;28;38353;-79
2021/06/19 09:02:51;;;;;;;3.55;1.90;;;;;;;;;;5064670;28;40684;-79
2021/06/19 09:05:24;;;;;;;5.80;2.50;;;;;;;;;;5064307;27;39880;-80
2021/06/19 09:07:52;;;;;;;7.35;2.20;;;;;;;;;;5066419;27;37695;-79
2021/06/19 09:10:25;;;;;;;3.70;2.30;;;;;;;;;;5064495;27;37641;-79
2021/06/19 09:12:54;;;;;;;2.70;1.75;;;;;;;;;;5062909;28;39317;-79
2021/06/19 09:15:20;;;;;;;3.33;1.88;;;;;;;;;;5064387;28;40094;-80
2021/06/19 09:18:07;;;;;;;2.17;2.00;;;;;;;;;;5063246;28;39538;-79
2021/06/19 09:20:40;;;;;;;3.28;1.83;;;;;;;;;;5062919;28;46905;-80
2021/06/19 09:23:09;;;;;;;2.72;1.80;;;;;;;;;;5063278;28;40057;-77
2021/06/19 09:25:36;;;;;;;2.45;2.00;;;;;;;;;;5062833;28;39250;-79
2021/06/19 09:28:04;;;;;;;3.20;1.70;;;;;;;;;;5059688;27;38819;-78
2021/06/19 09:30:31;;;;;;;4.97;1.98;;;;;;;;;;5053633;28;38368;-78
2021/06/19 09:32:58;;;;;;;2.97;1.95;;;;;;;;;;5045982;28;37832;-78
2021/06/19 09:35:39;;;;;;;5.53;2.15;;;;;;;;;;5047694;28;38592;-78
2021/06/19 09:38:12;;;;;;;2.30;2.10;;;;;;;;;;5041220;28;39958;-79
2021/06/19 09:40:45;;;;;;;2.17;2.00;;;;;;;;;;5044177;28;36820;-78
2021/06/19 09:43:18;;;;;;;2.25;2.00;;;;;;;;;;5046008;28;39612;-78
2021/06/19 09:45:46;;;;;;;2.20;2.00;;;;;;;;;;5045715;28;40664;-78
2021/06/19 09:48:23;;;;;;;3.25;1.88;;;;;;;;;;5045392;28;38775;-78
2021/06/19 09:51:20;;;;;;;3.40;2.10;;;;;;;;;;5043537;28;36747;-77
2021/06/19 09:53:48;;;;;;;2.47;2.00;;;;;;;;;;5045343;27;48839;-77
2021/06/19 09:56:15;;;;;;;7.60;2.10;;;;;;;;;;5053367;27;38962;-77
2021/06/19 09:58:42;;;;;;;3.70;2.40;;;;;;;;;;5068973;28;38478;-78
2021/06/19 10:01:09;;;;;;;2.75;2.22;;;;;;;;;;5063255;28;38553;-77
2021/06/19 10:03:51;;;;;;;2.78;2.05;;;;;;;;;;5066564;28;39727;-77
2021/06/19 10:06:17;;;;;;;2.58;1.50;;;;;;;;;;5066699;28;38508;-78
2021/06/19 10:08:44;;;;;;;2.83;2.42;;;;;;;;;;5064700;28;38711;-78
2021/06/19 10:11:11;;;;;;;4.03;1.83;;;;;;;;;;5067588;28;36891;-77
2021/06/19 10:13:38;;;;;;;4.97;2.20;;;;;;;;;;5067566;27;39691;-78
2021/06/19 10:16:04;;;;;;;2.67;2.15;;;;;;;;;;5066751;28;39169;-77
2021/06/19 10:18:31;;;;;;;5.63;3.08;;;;;;;;;;5064183;28;38461;-78
2021/06/19 10:20:58;;;;;;;3.00;2.22;;;;;;;;;;5067762;28;36846;-76
2021/06/19 10:23:24;;;;;;;2.25;1.88;;;;;;;;;;5067941;28;38630;-78
2021/06/19 10:25:50;;;;;;;2.80;1.95;;;;;;;;;;5065065;28;38776;-80
2021/06/19 10:28:17;;;;;;;2.90;2.38;;;;;;;;;;5065972;27;38920;-77
2021/06/19 10:30:44;;;;;;;2.75;2.00;;;;;;;;;;5065371;28;37887;-79
2021/06/19 10:33:40;;;;;;;2.53;1.65;;;;;;;;;;5064559;28;40713;-78
2021/06/19 10:36:08;;;;;;;3.47;2.60;;;;;;;;;;5043903;28;40240;-77
2021/06/19 10:38:54;;;;;;;3.63;2.20;;;;;;;;;;5065604;27;39428;-79
2021/06/19 10:41:22;;;;;;;2.63;2.03;;;;;;;;;;5065443;27;37897;-78
2021/06/19 10:43:50;;;;;;;3.95;2.20;;;;;;;;;;5059770;27;40057;-79
2021/06/19 10:46:36;;;;;;;3.25;2.00;;;;;;;;;;5062273;28;38896;-77
2021/06/19 10:49:20;;;;;;;3.28;2.40;;;;;;;;;;5062652;28;39894;-78
2021/06/19 10:51:47;;;;;;;2.70;2.50;;;;;;;;;;5060585;28;47251;-78
2021/06/19 10:54:15;;;;;;;3.28;2.50;;;;;;;;;;5055746;28;40062;-78
2021/06/19 10:56:57;;;;;;;2.58;2.30;;;;;;;;;;5066892;28;40346;-78
2021/06/19 10:59:28;;;;;;;3.55;2.35;;;;;;;;;;5063409;28;38339;-78
2021/06/19 11:01:55;;;;;;;3.63;2.40;;;;;;;;;;5062529;28;38105;-79
2021/06/19 11:04:40;;;;;;;2.60;2.08;;;;;;;;;;5051903;28;39081;-77
2021/06/19 11:07:07;;;;;;;4.05;2.53;;;;;;;;;;5052954;28;39836;-78
2021/06/19 11:09:41;;;;;;;2.60;2.30;;;;;;;;;;5060324;28;38698;-79
2021/06/19 11:12:22;;;;;;;2.53;2.33;;;;;;;;;;5045991;28;37733;-79
2021/06/19 11:14:50;;;;;;;2.72;2.22;;;;;;;;;;5041180;28;39358;-78
2021/06/19 11:17:26;;;;;;;5.20;2.47;;;;;;;;;;5054927;28;40373;-80
2021/06/19 11:19:55;;;;;;;2.17;1.88;;;;;;;;;;5044888;28;40437;-80
2021/06/19 11:22:24;;;;;;;2.67;2.35;;;;;;;;;;5031901;28;38104;-78
2021/06/19 11:25:10;;;;;;;5.30;2.90;;;;;;;;;;5047597;28;38711;-79
2021/06/19 11:27:57;;;;;;;2.80;2.15;;;;;;;;;;5057826;27;48977;-78
2021/06/19 11:30:39;;;;;;;4.55;2.60;;;;;;;;;;5060964;27;38775;-79
2021/06/19 11:33:38;;;;;;;2.35;2.00;;;;;;;;;;5067291;27;36782;-79
2021/06/19 11:36:05;;;;;;;3.53;2.50;;;;;;;;;;5061326;28;39596;-77
2021/06/19 11:38:44;;;;;;;3.08;2.45;;;;;;;;;;5060156;28;39262;-78
2021/06/19 11:41:11;;;;;;;3.40;3.05;;;;;;;;;;5060517;28;39066;-79
2021/06/19 11:43:38;;;;;;;3.55;2.95;;;;;;;;;;5065913;28;35851;-78
2021/06/19 11:46:04;;;;;;;4.03;2.55;;;;;;;;;;5066199;28;39069;-78
2021/06/19 11:48:30;;;;;;;3.55;2.97;;;;;;;;;;5064247;28;38440;-78
2021/06/19 11:51:04;;;;;;;2.20;2.00;;;;;;;;;;5063956;28;39252;-77
2021/06/19 11:53:38;;;;;;;3.10;2.47;;;;;;;;;;5065933;27;49890;-77
2021/06/19 11:56:11;;;;;;;3.45;2.72;;;;;;;;;;5045890;27;39556;-79
2021/06/19 11:58:42;;;;;;;3.95;2.92;;;;;;;;;;5080599;27;38896;-77
2021/06/19 12:01:09;;;;;;;3.15;2.28;;;;;;;;;;5062727;28;38679;-77
2021/06/19 12:03:35;;;;;;;3.08;2.28;;;;;;;;;;5065193;28;36385;-80
2021/06/19 12:06:01;;;;;;;4.70;3.10;;;;;;;;;;5063458;28;37434;-78
2021/06/19 12:08:28;;;;;;;4.43;3.00;;;;;;;;;;5065833;28;39012;-79
2021/06/19 12:10:54;;;;;;;4.05;2.80;;;;;;;;;;5059308;28;37418;-78
2021/06/19 12:13:30;;;;;;;3.72;3.25;;;;;;;;;;5064244;27;38744;-78
2021/06/19 12:15:57;;;;;;;3.95;2.65;;;;;;;;;;5066069;27;39672;-78
2021/06/19 12:18:24;;;;;;;3.33;2.70;;;;;;;;;;5062094;28;39022;-78
2021/06/19 12:21:19;;;;;;;2.92;2.47;;;;;;;;;;5065707;27;39526;-78
2021/06/19 12:23:46;;;;;;;5.28;3.05;;;;;;;;;;5052615;27;48844;-77
2021/06/19 12:26:16;;;;;;;4.18;2.78;;;;;;;;;;5056385;27;40201;-78
2021/06/19 12:28:44;;;;;;;4.00;3.33;;;;;;;;;;5040046;28;40020;-79
2021/06/19 12:31:10;;;;;;;3.95;3.30;;;;;;;;;;5044037;28;37353;-79
2021/06/19 12:33:37;;;;;;;3.78;3.00;;;;;;;;;;5048488;28;37735;-79
2021/06/19 12:36:04;;;;;;;3.97;3.10;;;;;;;;;;5038183;28;38947;-79
2021/06/19 12:38:31;;;;;;;4.72;3.58;;;;;;;;;;5044767;28;40616;-79
2021/06/19 12:40:58;;;;;;;3.78;3.17;;;;;;;;;;5040765;28;38580;-78
2021/06/19 12:43:25;;;;;;;5.32;4.22;;;;;;;;;;5039526;28;35975;-78
2021/06/19 12:45:52;;;;;;;7.90;5.00;;;;;;;;;;5036237;28;39238;-78
2021/06/19 12:48:23;;;;;;;5.38;4.18;;;;;;;;;;5038494;28;38906;-78
2021/06/19 12:50:53;;;;;;;5.10;4.60;;;;;;;;;;5045897;28;38428;-79
2021/06/19 12:53:24;;;;;;;4.80;4.32;;;;;;;;;;5039203;28;35952;-80
2021/06/19 12:55:53;;;;;;;6.13;4.83;;;;;;;;;;5025623;28;37835;-80
2021/06/19 12:58:21;;;;;;;5.60;4.85;;;;;;;;;;5038029;28;37625;-78
2021/06/19 13:00:53;;;;;;;6.10;4.90;;;;;;;;;;5043309;28;38371;-78
2021/06/19 13:03:25;;;;;;;6.47;4.85;;;;;;;;;;5047297;28;35665;-78
2021/06/19 13:05:54;;;;;;;5.30;4.40;;;;;;;;;;5046439;28;40079;-79
2021/06/19 13:08:21;;;;;;;4.47;4.03;;;;;;;;;;5058179;28;38799;-80
2021/06/19 13:10:47;;;;;;;4.78;3.65;;;;;;;;;;5063454;28;37780;-78
2021/06/19 13:13:14;;;;;;;4.82;4.28;;;;;;;;;;5062357;28;37661;-78
2021/06/19 13:16:10;;;;;;;5.63;4.22;;;;;;;;;;5063451;28;37692;-80
2021/06/19 13:18:37;;;;;;;6.53;4.82;;;;;;;;;;5050801;28;49043;-79
2021/06/19 13:21:13;;;;;;;6.40;4.50;;;;;;;;;;5063229;27;38147;-80
2021/06/19 13:23:40;;;;;;;5.85;4.93;;;;;;;;;;5064112;28;36479;-79
2021/06/19 13:26:09;;;;;;;7.03;4.63;;;;;;;;;;5065130;28;40325;-79
2021/06/19 13:28:40;;;;;;;5.35;4.30;;;;;;;;;;5061131;28;39714;-79
2021/06/19 13:31:11;;;;;;;6.70;4.38;;;;;;;;;;5059742;28;38271;-79
2021/06/19 13:34:01;;;;;;;8.13;6.03;;;;;;;;;;5061027;28;38077;-79
2021/06/19 13:36:38;;;;;;;7.40;5.75;;;;;;;;;;5046324;27;38558;-79
2021/06/19 13:39:05;;;;;;;6.63;4.97;;;;;;;;;;5063066;28;39675;-79
2021/06/19 13:41:33;;;;;;;7.80;6.38;;;;;;;;;;5063285;28;38881;-79
2021/06/19 13:44:01;;;;;;;7.90;6.68;;;;;;;;;;5066182;28;36668;-79
2021/06/19 13:46:28;;;;;;;10.68;8.05;;;;;;;;;;5060104;28;38871;-80
2021/06/19 13:48:56;;;;;;;10.93;6.68;;;;;;;;;;5060913;28;38917;-80
2021/06/19 13:51:22;;;;;;;7.85;5.82;;;;;;;;;;5063943;28;38813;-79
2021/06/19 13:53:49;;;;;;;6.82;5.53;;;;;;;;;;5054679;28;35832;-78
2021/06/19 13:56:17;;;;;;;8.20;6.03;;;;;;;;;;5042294;28;39228;-80
2021/06/19 13:58:44;;;;;;;7.97;5.22;;;;;;;;;;5064124;27;39241;-80
2021/06/19 14:01:11;;;;;;;6.75;5.78;;;;;;;;;;5057976;27;38836;-80
2021/06/19 14:03:38;;;;;;;6.40;5.05;;;;;;;;;;5059766;28;37025;-80
2021/06/19 14:06:09;;;;;;;5.78;4.97;;;;;;;;;;5065100;28;37853;-79
2021/06/19 14:08:36;;;;;;;6.68;4.75;;;;;;;;;;5068553;28;39440;-79
2021/06/19 14:11:02;;;;;;;9.40;6.25;;;;;;;;;;5056650;28;38821;-80
2021/06/19 14:13:28;;;;;;;6.68;4.88;;;;;;;;;;5043267;28;37131;-79
2021/06/19 14:15:55;;;;;;;7.70;5.70;;;;;;;;;;5046601;28;39876;-79
2021/06/19 14:18:21;;;;;;;7.15;4.95;;;;;;;;;;5048278;28;38718;-79
2021/06/19 14:20:47;;;;;;;7.43;4.88;;;;;;;;;;5066889;28;38409;-80
2021/06/19 14:23:14;;;;;;;7.43;5.63;;;;;;;;;;5062076;28;35558;-80
2021/06/19 14:25:40;;;;;;;6.78;5.70;;;;;;;;;;5064243;28;39699;-79
2021/06/19 14:28:08;;;;;;;8.60;5.88;;;;;;;;;;5054278;28;38864;-78
2021/06/19 14:30:37;;;;;;;9.07;6.05;;;;;;;;;;5063439;28;38703;-79
2021/06/19 14:33:03;;;;;;;6.88;5.65;;;;;;;;;;5066130;28;37203;-79
2021/06/19 14:35:30;;;;;;;8.60;5.63;;;;;;;;;;5065844;28;37587;-80
2021/06/19 14:37:56;;;;;;;6.40;5.05;;;;;;;;;;5066467;28;40421;-79